sensor_id;sensor_type;location;lat;lon;timestamp;P1;durP1;ratioP1;P2;durP2;ratioP2
46429;SDS011;32131;53.454;-6.180;2022-12-05T00:01:58;12.15;;;4.03;;
46429;SDS011;32131;53.454;-6.180;2022-12-05T00:04:26;9.88;;;3.63;;
46429;SDS011;32131;53.454;-6.180;2022-12-05T00:06:55;10.50;;;3.22;;
46429;SDS011;32131;53.454;-6.180;2022-12-05T00:09:23;13.63;;;4.85;;
46429;SDS011;32131;53.454;-6.180;2022-12-05T00:11:51;15.25;;;4.15;;
46429;SDS011;32131;53.454;-6.180;2022-12-05T00:14:19;12.65;;;4.82;;
46429;SDS011;32131;53.454;-6.180;2022-12-05T00:16:49;19.20;;;5.65;;
46429;SDS011;32131;53.454;-6.180;2022-12-05T00:19:17;14.27;;;4.53;;
46429;SDS011;32131;53.454;-6.180;2022-12-05T00:21:46;14.45;;;5.63;;
46429;SDS011;32131;53.454;-6.180;2022-12-05T00:24:14;18.75;;;5.85;;
46429;SDS011;32131;53.454;-6.180;2022-12-05T00:26:43;16.50;;;3.95;;
46429;SDS011;32131;53.454;-6.180;2022-12-05T00:29:11;9.32;;;4.70;;
46429;SDS011;32131;53.454;-6.180;2022-12-05T00:31:42;9.38;;;4.03;;
46429;SDS011;32131;53.454;-6.180;2022-12-05T00:34:12;11.27;;;4.03;;
46429;SDS011;32131;53.454;-6.180;2022-12-05T00:36:44;9.15;;;3.90;;
46429;SDS011;32131;53.454;-6.180;2022-12-05T00:39:12;15.02;;;3.90;;
46429;SDS011;32131;53.454;-6.180;2022-12-05T00:41:41;13.23;;;3.47;;
46429;SDS011;32131;53.454;-6.180;2022-12-05T00:44:11;8.52;;;3.33;;
46429;SDS011;32131;53.454;-6.180;2022-12-05T00:46:40;7.28;;;2.97;;
46429;SDS011;32131;53.454;-6.180;2022-12-05T00:49:09;6.45;;;2.70;;
46429;SDS011;32131;53.454;-6.180;2022-12-05T00:51:40;17.60;;;3.90;;
46429;SDS011;32131;53.454;-6.180;2022-12-05T00:54:10;6.35;;;2.95;;
46429;SDS011;32131;53.454;-6.180;2022-12-05T00:56:41;5.18;;;1.95;;
46429;SDS011;32131;53.454;-6.180;2022-12-05T00:59:11;7.47;;;2.60;;
46429;SDS011;32131;53.454;-6.180;2022-12-05T01:01:43;14.68;;;2.88;;
46429;SDS011;32131;53.454;-6.180;2022-12-05T01:06:45;7.00;;;3.33;;
46429;SDS011;32131;53.454;-6.180;2022-12-05T01:09:16;5.68;;;2.65;;
46429;SDS011;32131;53.454;-6.180;2022-12-05T01:11:45;9.32;;;2.95;;
46429;SDS011;32131;53.454;-6.180;2022-12-05T01:14:15;7.38;;;2.85;;
46429;SDS011;32131;53.454;-6.180;2022-12-05T01:19:17;8.35;;;1.98;;
46429;SDS011;32131;53.454;-6.180;2022-12-05T01:21:47;6.80;;;2.58;;
46429;SDS011;32131;53.454;-6.180;2022-12-05T01:24:18;5.75;;;2.38;;
46429;SDS011;32131;53.454;-6.180;2022-12-05T01:26:48;12.50;;;3.30;;
46429;SDS011;32131;53.454;-6.180;2022-12-05T01:29:18;9.20;;;3.17;;
46429;SDS011;32131;53.454;-6.180;2022-12-05T01:31:48;7.35;;;3.00;;
46429;SDS011;32131;53.454;-6.180;2022-12-05T01:34:19;10.43;;;2.85;;
46429;SDS011;32131;53.454;-6.180;2022-12-05T01:36:47;9.38;;;2.75;;
46429;SDS011;32131;53.454;-6.180;2022-12-05T01:39:16;6.82;;;2.47;;
46429;SDS011;32131;53.454;-6.180;2022-12-05T01:41:45;6.45;;;2.35;;
46429;SDS011;32131;53.454;-6.180;2022-12-05T01:47:20;6.90;;;2.20;;
46429;SDS011;32131;53.454;-6.180;2022-12-05T01:49:52;3.85;;;2.00;;
46429;SDS011;32131;53.454;-6.180;2022-12-05T01:52:22;12.38;;;2.90;;
46429;SDS011;32131;53.454;-6.180;2022-12-05T01:54:53;11.40;;;2.75;;
46429;SDS011;32131;53.454;-6.180;2022-12-05T01:57:24;8.27;;;2.42;;
46429;SDS011;32131;53.454;-6.180;2022-12-05T01:59:54;8.80;;;2.30;;
46429;SDS011;32131;53.454;-6.180;2022-12-05T02:02:26;7.15;;;2.33;;
46429;SDS011;32131;53.454;-6.180;2022-12-05T02:04:59;5.13;;;2.30;;
46429;SDS011;32131;53.454;-6.180;2022-12-05T02:07:31;8.32;;;2.45;;
46429;SDS011;32131;53.454;-6.180;2022-12-05T02:10:00;9.30;;;2.40;;
46429;SDS011;32131;53.454;-6.180;2022-12-05T02:12:28;8.55;;;3.33;;
46429;SDS011;32131;53.454;-6.180;2022-12-05T02:15:03;6.13;;;2.42;;
46429;SDS011;32131;53.454;-6.180;2022-12-05T02:17:41;11.10;;;2.70;;
46429;SDS011;32131;53.454;-6.180;2022-12-05T02:20:23;6.95;;;2.70;;
46429;SDS011;32131;53.454;-6.180;2022-12-05T02:23:15;6.63;;;2.95;;
46429;SDS011;32131;53.454;-6.180;2022-12-05T02:25:59;6.53;;;2.33;;
46429;SDS011;32131;53.454;-6.180;2022-12-05T02:28:55;6.63;;;2.80;;
46429;SDS011;32131;53.454;-6.180;2022-12-05T02:31:59;6.55;;;3.13;;
46429;SDS011;32131;53.454;-6.180;2022-12-05T02:34:34;9.88;;;2.70;;
46429;SDS011;32131;53.454;-6.180;2022-12-05T02:37:12;9.73;;;3.13;;
46429;SDS011;32131;53.454;-6.180;2022-12-05T02:39:46;4.50;;;2.53;;
46429;SDS011;32131;53.454;-6.180;2022-12-05T02:42:23;9.07;;;3.45;;
46429;SDS011;32131;53.454;-6.180;2022-12-05T02:44:58;13.23;;;3.55;;
46429;SDS011;32131;53.454;-6.180;2022-12-05T02:47:30;10.55;;;2.83;;
46429;SDS011;32131;53.454;-6.180;2022-12-05T02:50:02;10.13;;;3.75;;
46429;SDS011;32131;53.454;-6.180;2022-12-05T02:52:32;7.03;;;3.17;;
46429;SDS011;32131;53.454;-6.180;2022-12-05T02:55:02;10.18;;;2.70;;
46429;SDS011;32131;53.454;-6.180;2022-12-05T02:57:30;4.80;;;2.08;;
46429;SDS011;32131;53.454;-6.180;2022-12-05T03:02:29;8.48;;;3.10;;
46429;SDS011;32131;53.454;-6.180;2022-12-05T03:05:03;7.78;;;2.42;;
46429;SDS011;32131;53.454;-6.180;2022-12-05T03:07:41;6.78;;;2.72;;
46429;SDS011;32131;53.454;-6.180;2022-12-05T03:10:13;10.63;;;2.55;;
46429;SDS011;32131;53.454;-6.180;2022-12-05T03:12:45;9.00;;;1.92;;
46429;SDS011;32131;53.454;-6.180;2022-12-05T03:15:31;8.77;;;2.03;;
46429;SDS011;32131;53.454;-6.180;2022-12-05T03:18:05;9.02;;;2.13;;
46429;SDS011;32131;53.454;-6.180;2022-12-05T03:20:39;9.43;;;2.65;;
46429;SDS011;32131;53.454;-6.180;2022-12-05T03:23:13;7.28;;;2.65;;
46429;SDS011;32131;53.454;-6.180;2022-12-05T03:25:49;9.85;;;2.13;;
46429;SDS011;32131;53.454;-6.180;2022-12-05T03:28:22;9.65;;;2.50;;
46429;SDS011;32131;53.454;-6.180;2022-12-05T03:30:55;5.93;;;2.35;;
46429;SDS011;32131;53.454;-6.180;2022-12-05T03:33:31;8.57;;;2.28;;
46429;SDS011;32131;53.454;-6.180;2022-12-05T03:36:08;8.68;;;2.63;;
46429;SDS011;32131;53.454;-6.180;2022-12-05T03:38:42;10.13;;;2.92;;
46429;SDS011;32131;53.454;-6.180;2022-12-05T03:41:16;4.60;;;2.05;;
46429;SDS011;32131;53.454;-6.180;2022-12-05T03:43:51;11.50;;;3.25;;
46429;SDS011;32131;53.454;-6.180;2022-12-05T03:46:23;8.43;;;2.60;;
46429;SDS011;32131;53.454;-6.180;2022-12-05T03:48:56;5.53;;;2.50;;
46429;SDS011;32131;53.454;-6.180;2022-12-05T03:51:30;8.25;;;2.70;;
46429;SDS011;32131;53.454;-6.180;2022-12-05T03:54:03;9.40;;;2.55;;
46429;SDS011;32131;53.454;-6.180;2022-12-05T03:56:35;7.88;;;2.78;;
46429;SDS011;32131;53.454;-6.180;2022-12-05T03:59:09;6.72;;;2.60;;
46429;SDS011;32131;53.454;-6.180;2022-12-05T04:01:43;10.73;;;2.55;;
46429;SDS011;32131;53.454;-6.180;2022-12-05T04:04:19;9.73;;;2.50;;
46429;SDS011;32131;53.454;-6.180;2022-12-05T04:06:52;5.28;;;2.15;;
46429;SDS011;32131;53.454;-6.180;2022-12-05T04:09:23;9.20;;;2.50;;
46429;SDS011;32131;53.454;-6.180;2022-12-05T04:11:56;9.30;;;2.40;;
46429;SDS011;32131;53.454;-6.180;2022-12-05T04:14:31;5.90;;;2.88;;
46429;SDS011;32131;53.454;-6.180;2022-12-05T04:17:04;6.30;;;2.50;;
46429;SDS011;32131;53.454;-6.180;2022-12-05T04:19:38;6.75;;;3.53;;
46429;SDS011;32131;53.454;-6.180;2022-12-05T04:22:26;21.33;;;3.08;;
46429;SDS011;32131;53.454;-6.180;2022-12-05T04:24:56;19.60;;;3.83;;
46429;SDS011;32131;53.454;-6.180;2022-12-05T04:27:47;9.23;;;3.20;;
46429;SDS011;32131;53.454;-6.180;2022-12-05T04:30:22;7.82;;;2.88;;
46429;SDS011;32131;53.454;-6.180;2022-12-05T04:32:54;14.30;;;3.30;;
46429;SDS011;32131;53.454;-6.180;2022-12-05T04:35:31;8.45;;;2.40;;
46429;SDS011;32131;53.454;-6.180;2022-12-05T04:38:03;11.07;;;2.55;;
46429;SDS011;32131;53.454;-6.180;2022-12-05T04:40:40;12.32;;;2.40;;
46429;SDS011;32131;53.454;-6.180;2022-12-05T04:43:15;12.48;;;3.13;;
46429;SDS011;32131;53.454;-6.180;2022-12-05T04:45:46;16.23;;;3.75;;
46429;SDS011;32131;53.454;-6.180;2022-12-05T04:48:17;13.20;;;3.50;;
46429;SDS011;32131;53.454;-6.180;2022-12-05T04:50:47;9.45;;;3.05;;
46429;SDS011;32131;53.454;-6.180;2022-12-05T04:53:18;7.50;;;2.30;;
46429;SDS011;32131;53.454;-6.180;2022-12-05T04:55:48;9.25;;;3.40;;
46429;SDS011;32131;53.454;-6.180;2022-12-05T04:58:20;9.35;;;2.83;;
46429;SDS011;32131;53.454;-6.180;2022-12-05T05:00:51;10.38;;;2.72;;
46429;SDS011;32131;53.454;-6.180;2022-12-05T05:03:23;8.25;;;2.60;;
46429;SDS011;32131;53.454;-6.180;2022-12-05T05:05:57;9.88;;;2.25;;
46429;SDS011;32131;53.454;-6.180;2022-12-05T05:08:26;8.57;;;2.20;;
46429;SDS011;32131;53.454;-6.180;2022-12-05T05:11:06;10.07;;;2.42;;
46429;SDS011;32131;53.454;-6.180;2022-12-05T05:13:38;8.25;;;2.58;;
46429;SDS011;32131;53.454;-6.180;2022-12-05T05:16:06;10.68;;;2.70;;
46429;SDS011;32131;53.454;-6.180;2022-12-05T05:18:39;12.75;;;2.83;;
46429;SDS011;32131;53.454;-6.180;2022-12-05T05:21:14;13.70;;;2.50;;
46429;SDS011;32131;53.454;-6.180;2022-12-05T05:23:44;8.98;;;2.97;;
46429;SDS011;32131;53.454;-6.180;2022-12-05T05:26:13;8.63;;;2.55;;
46429;SDS011;32131;53.454;-6.180;2022-12-05T05:28:41;9.02;;;2.60;;
46429;SDS011;32131;53.454;-6.180;2022-12-05T05:31:10;6.80;;;2.67;;
46429;SDS011;32131;53.454;-6.180;2022-12-05T05:33:38;11.00;;;2.72;;
46429;SDS011;32131;53.454;-6.180;2022-12-05T05:36:08;16.70;;;3.05;;
46429;SDS011;32131;53.454;-6.180;2022-12-05T05:38:40;9.63;;;2.58;;
46429;SDS011;32131;53.454;-6.180;2022-12-05T05:41:11;5.00;;;2.03;;
46429;SDS011;32131;53.454;-6.180;2022-12-05T05:43:39;6.43;;;1.70;;
46429;SDS011;32131;53.454;-6.180;2022-12-05T05:46:08;6.93;;;1.95;;
46429;SDS011;32131;53.454;-6.180;2022-12-05T05:48:37;11.30;;;2.03;;
46429;SDS011;32131;53.454;-6.180;2022-12-05T05:51:06;3.90;;;2.03;;
46429;SDS011;32131;53.454;-6.180;2022-12-05T05:53:36;16.85;;;2.58;;
46429;SDS011;32131;53.454;-6.180;2022-12-05T05:56:08;17.38;;;2.50;;
46429;SDS011;32131;53.454;-6.180;2022-12-05T05:58:44;7.65;;;2.30;;
46429;SDS011;32131;53.454;-6.180;2022-12-05T06:01:13;6.65;;;2.13;;
46429;SDS011;32131;53.454;-6.180;2022-12-05T06:03:42;6.47;;;1.98;;
46429;SDS011;32131;53.454;-6.180;2022-12-05T06:06:11;6.72;;;2.20;;
46429;SDS011;32131;53.454;-6.180;2022-12-05T06:08:41;8.15;;;2.58;;
46429;SDS011;32131;53.454;-6.180;2022-12-05T06:11:12;17.20;;;3.63;;
46429;SDS011;32131;53.454;-6.180;2022-12-05T06:13:50;3.15;;;1.80;;
46429;SDS011;32131;53.454;-6.180;2022-12-05T06:16:19;7.35;;;2.00;;
46429;SDS011;32131;53.454;-6.180;2022-12-05T06:18:47;5.78;;;2.20;;
46429;SDS011;32131;53.454;-6.180;2022-12-05T06:21:15;8.90;;;2.53;;
46429;SDS011;32131;53.454;-6.180;2022-12-05T06:23:43;7.18;;;1.80;;
46429;SDS011;32131;53.454;-6.180;2022-12-05T06:26:14;6.72;;;2.13;;
46429;SDS011;32131;53.454;-6.180;2022-12-05T06:28:43;6.80;;;2.08;;
46429;SDS011;32131;53.454;-6.180;2022-12-05T06:31:13;7.18;;;2.00;;
46429;SDS011;32131;53.454;-6.180;2022-12-05T06:33:43;12.57;;;2.60;;
46429;SDS011;32131;53.454;-6.180;2022-12-05T06:36:12;7.22;;;1.98;;
46429;SDS011;32131;53.454;-6.180;2022-12-05T06:38:43;8.73;;;1.50;;
46429;SDS011;32131;53.454;-6.180;2022-12-05T06:41:14;5.10;;;2.08;;
46429;SDS011;32131;53.454;-6.180;2022-12-05T06:43:45;6.07;;;1.88;;
46429;SDS011;32131;53.454;-6.180;2022-12-05T06:46:14;13.90;;;2.13;;
46429;SDS011;32131;53.454;-6.180;2022-12-05T06:48:44;8.38;;;2.55;;
46429;SDS011;32131;53.454;-6.180;2022-12-05T06:51:13;14.80;;;2.22;;
46429;SDS011;32131;53.454;-6.180;2022-12-05T06:53:42;4.55;;;1.63;;
46429;SDS011;32131;53.454;-6.180;2022-12-05T06:56:11;11.85;;;2.00;;
46429;SDS011;32131;53.454;-6.180;2022-12-05T06:58:42;7.07;;;1.48;;
46429;SDS011;32131;53.454;-6.180;2022-12-05T07:01:18;9.20;;;1.52;;
46429;SDS011;32131;53.454;-6.180;2022-12-05T07:04:11;14.02;;;2.28;;
46429;SDS011;32131;53.454;-6.180;2022-12-05T07:06:41;5.45;;;1.75;;
46429;SDS011;32131;53.454;-6.180;2022-12-05T07:09:16;3.88;;;1.05;;
46429;SDS011;32131;53.454;-6.180;2022-12-05T07:11:45;1.50;;;0.80;;
46429;SDS011;32131;53.454;-6.180;2022-12-05T07:14:15;4.17;;;1.40;;
46429;SDS011;32131;53.454;-6.180;2022-12-05T07:17:05;6.85;;;1.85;;
46429;SDS011;32131;53.454;-6.180;2022-12-05T07:19:33;7.75;;;1.67;;
46429;SDS011;32131;53.454;-6.180;2022-12-05T07:22:01;7.07;;;1.38;;
46429;SDS011;32131;53.454;-6.180;2022-12-05T07:24:37;11.35;;;2.15;;
46429;SDS011;32131;53.454;-6.180;2022-12-05T07:27:05;13.93;;;2.35;;
46429;SDS011;32131;53.454;-6.180;2022-12-05T07:29:55;15.43;;;1.90;;
46429;SDS011;32131;53.454;-6.180;2022-12-05T07:32:23;6.75;;;2.25;;
46429;SDS011;32131;53.454;-6.180;2022-12-05T07:34:52;18.55;;;2.83;;
46429;SDS011;32131;53.454;-6.180;2022-12-05T07:37:21;10.73;;;3.00;;
46429;SDS011;32131;53.454;-6.180;2022-12-05T07:39:50;6.57;;;2.22;;
46429;SDS011;32131;53.454;-6.180;2022-12-05T07:42:19;9.07;;;1.42;;
46429;SDS011;32131;53.454;-6.180;2022-12-05T07:44:47;10.77;;;1.70;;
46429;SDS011;32131;53.454;-6.180;2022-12-05T07:47:16;8.32;;;1.42;;
46429;SDS011;32131;53.454;-6.180;2022-12-05T07:49:45;7.20;;;2.05;;
46429;SDS011;32131;53.454;-6.180;2022-12-05T07:52:13;6.60;;;1.30;;
46429;SDS011;32131;53.454;-6.180;2022-12-05T07:54:41;5.50;;;1.58;;
46429;SDS011;32131;53.454;-6.180;2022-12-05T07:57:09;4.68;;;1.40;;
46429;SDS011;32131;53.454;-6.180;2022-12-05T07:59:37;6.13;;;1.70;;
46429;SDS011;32131;53.454;-6.180;2022-12-05T08:02:05;9.27;;;1.40;;
46429;SDS011;32131;53.454;-6.180;2022-12-05T08:04:37;5.85;;;1.73;;
46429;SDS011;32131;53.454;-6.180;2022-12-05T08:07:08;3.45;;;1.30;;
46429;SDS011;32131;53.454;-6.180;2022-12-05T08:09:36;4.72;;;1.08;;
46429;SDS011;32131;53.454;-6.180;2022-12-05T08:12:04;5.55;;;1.17;;
46429;SDS011;32131;53.454;-6.180;2022-12-05T08:14:33;7.32;;;1.77;;
46429;SDS011;32131;53.454;-6.180;2022-12-05T08:17:01;2.95;;;1.10;;
46429;SDS011;32131;53.454;-6.180;2022-12-05T08:19:30;14.25;;;1.55;;
46429;SDS011;32131;53.454;-6.180;2022-12-05T08:22:01;7.40;;;2.47;;
46429;SDS011;32131;53.454;-6.180;2022-12-05T08:24:29;13.93;;;3.35;;
46429;SDS011;32131;53.454;-6.180;2022-12-05T08:26:57;13.52;;;2.97;;
46429;SDS011;32131;53.454;-6.180;2022-12-05T08:29:25;12.82;;;3.35;;
46429;SDS011;32131;53.454;-6.180;2022-12-05T08:31:53;11.10;;;2.45;;
46429;SDS011;32131;53.454;-6.180;2022-12-05T08:34:22;8.27;;;1.88;;
46429;SDS011;32131;53.454;-6.180;2022-12-05T08:36:50;10.40;;;1.77;;
46429;SDS011;32131;53.454;-6.180;2022-12-05T08:39:19;6.22;;;1.27;;
46429;SDS011;32131;53.454;-6.180;2022-12-05T08:41:47;5.40;;;1.73;;
46429;SDS011;32131;53.454;-6.180;2022-12-05T08:44:16;6.78;;;1.55;;
46429;SDS011;32131;53.454;-6.180;2022-12-05T08:46:45;8.50;;;2.20;;
46429;SDS011;32131;53.454;-6.180;2022-12-05T08:49:14;6.47;;;2.55;;
46429;SDS011;32131;53.454;-6.180;2022-12-05T08:51:43;9.18;;;2.28;;
46429;SDS011;32131;53.454;-6.180;2022-12-05T08:54:11;7.95;;;2.78;;
46429;SDS011;32131;53.454;-6.180;2022-12-05T08:56:43;11.82;;;4.35;;
46429;SDS011;32131;53.454;-6.180;2022-12-05T08:59:11;19.90;;;6.57;;
46429;SDS011;32131;53.454;-6.180;2022-12-05T09:01:39;16.55;;;5.15;;
46429;SDS011;32131;53.454;-6.180;2022-12-05T09:04:09;11.80;;;2.72;;
46429;SDS011;32131;53.454;-6.180;2022-12-05T09:06:38;11.23;;;2.10;;
46429;SDS011;32131;53.454;-6.180;2022-12-05T09:09:08;11.13;;;1.50;;
46429;SDS011;32131;53.454;-6.180;2022-12-05T09:11:38;10.15;;;2.28;;
46429;SDS011;32131;53.454;-6.180;2022-12-05T09:14:18;9.07;;;1.35;;
46429;SDS011;32131;53.454;-6.180;2022-12-05T09:16:46;6.82;;;1.40;;
46429;SDS011;32131;53.454;-6.180;2022-12-05T09:19:16;5.50;;;1.10;;
46429;SDS011;32131;53.454;-6.180;2022-12-05T09:21:46;9.75;;;1.33;;
46429;SDS011;32131;53.454;-6.180;2022-12-05T09:24:14;7.65;;;1.17;;
46429;SDS011;32131;53.454;-6.180;2022-12-05T09:26:42;10.68;;;1.25;;
46429;SDS011;32131;53.454;-6.180;2022-12-05T09:29:10;4.72;;;0.95;;
46429;SDS011;32131;53.454;-6.180;2022-12-05T09:31:44;15.25;;;1.52;;
46429;SDS011;32131;53.454;-6.180;2022-12-05T09:34:14;6.55;;;1.00;;
46429;SDS011;32131;53.454;-6.180;2022-12-05T09:36:44;5.22;;;0.77;;
46429;SDS011;32131;53.454;-6.180;2022-12-05T09:39:15;1.90;;;0.50;;
46429;SDS011;32131;53.454;-6.180;2022-12-05T09:41:47;3.03;;;1.08;;
46429;SDS011;32131;53.454;-6.180;2022-12-05T09:44:40;4.38;;;1.02;;
46429;SDS011;32131;53.454;-6.180;2022-12-05T09:47:22;3.60;;;1.25;;
46429;SDS011;32131;53.454;-6.180;2022-12-05T09:49:59;4.10;;;0.73;;
46429;SDS011;32131;53.454;-6.180;2022-12-05T09:52:32;1.15;;;0.32;;
46429;SDS011;32131;53.454;-6.180;2022-12-05T09:55:05;4.60;;;0.63;;
46429;SDS011;32131;53.454;-6.180;2022-12-05T09:57:38;4.82;;;1.02;;
46429;SDS011;32131;53.454;-6.180;2022-12-05T10:00:11;11.98;;;1.00;;
46429;SDS011;32131;53.454;-6.180;2022-12-05T10:02:44;3.20;;;0.75;;
46429;SDS011;32131;53.454;-6.180;2022-12-05T10:05:21;4.35;;;0.90;;
46429;SDS011;32131;53.454;-6.180;2022-12-05T10:08:03;4.30;;;0.50;;
46429;SDS011;32131;53.454;-6.180;2022-12-05T10:10:43;9.75;;;1.52;;
46429;SDS011;32131;53.454;-6.180;2022-12-05T10:13:27;2.13;;;0.40;;
46429;SDS011;32131;53.454;-6.180;2022-12-05T10:16:08;3.53;;;1.02;;
46429;SDS011;32131;53.454;-6.180;2022-12-05T10:18:41;10.65;;;1.08;;
46429;SDS011;32131;53.454;-6.180;2022-12-05T10:21:14;6.60;;;0.88;;
46429;SDS011;32131;53.454;-6.180;2022-12-05T10:23:50;9.25;;;1.20;;
46429;SDS011;32131;53.454;-6.180;2022-12-05T10:26:27;2.58;;;1.20;;
46429;SDS011;32131;53.454;-6.180;2022-12-05T10:28:59;8.52;;;1.20;;
46429;SDS011;32131;53.454;-6.180;2022-12-05T10:31:34;9.73;;;0.90;;
46429;SDS011;32131;53.454;-6.180;2022-12-05T10:34:09;2.88;;;0.77;;
46429;SDS011;32131;53.454;-6.180;2022-12-05T10:36:43;8.23;;;1.00;;
46429;SDS011;32131;53.454;-6.180;2022-12-05T10:39:21;7.20;;;0.95;;
46429;SDS011;32131;53.454;-6.180;2022-12-05T10:41:50;11.82;;;1.48;;
46429;SDS011;32131;53.454;-6.180;2022-12-05T10:44:18;6.75;;;1.30;;
46429;SDS011;32131;53.454;-6.180;2022-12-05T10:46:46;7.15;;;1.27;;
46429;SDS011;32131;53.454;-6.180;2022-12-05T10:49:16;2.80;;;0.95;;
46429;SDS011;32131;53.454;-6.180;2022-12-05T10:51:46;3.40;;;0.77;;
46429;SDS011;32131;53.454;-6.180;2022-12-05T10:54:16;6.60;;;1.10;;
46429;SDS011;32131;53.454;-6.180;2022-12-05T10:56:48;10.43;;;0.90;;
46429;SDS011;32131;53.454;-6.180;2022-12-05T10:59:18;10.88;;;1.23;;
46429;SDS011;32131;53.454;-6.180;2022-12-05T11:01:48;8.60;;;0.85;;
46429;SDS011;32131;53.454;-6.180;2022-12-05T11:04:23;2.80;;;1.15;;
46429;SDS011;32131;53.454;-6.180;2022-12-05T11:06:56;6.45;;;1.25;;
46429;SDS011;32131;53.454;-6.180;2022-12-05T11:09:29;6.88;;;1.10;;
46429;SDS011;32131;53.454;-6.180;2022-12-05T11:14:29;8.75;;;1.08;;
46429;SDS011;32131;53.454;-6.180;2022-12-05T11:19:31;10.35;;;1.27;;
46429;SDS011;32131;53.454;-6.180;2022-12-05T11:22:00;8.63;;;1.10;;
46429;SDS011;32131;53.454;-6.180;2022-12-05T11:24:29;12.88;;;1.23;;
46429;SDS011;32131;53.454;-6.180;2022-12-05T11:26:59;11.18;;;1.10;;
46429;SDS011;32131;53.454;-6.180;2022-12-05T11:29:52;5.90;;;0.75;;
46429;SDS011;32131;53.454;-6.180;2022-12-05T11:32:23;7.68;;;1.05;;
46429;SDS011;32131;53.454;-6.180;2022-12-05T11:37:26;8.82;;;1.73;;
46429;SDS011;32131;53.454;-6.180;2022-12-05T11:39:59;2.40;;;0.68;;
46429;SDS011;32131;53.454;-6.180;2022-12-05T11:42:33;3.85;;;0.70;;
46429;SDS011;32131;53.454;-6.180;2022-12-05T11:45:16;3.83;;;0.75;;
46429;SDS011;32131;53.454;-6.180;2022-12-05T11:48:03;2.78;;;0.70;;
46429;SDS011;32131;53.454;-6.180;2022-12-05T11:50:49;7.15;;;1.08;;
46429;SDS011;32131;53.454;-6.180;2022-12-05T11:53:34;14.15;;;1.40;;
46429;SDS011;32131;53.454;-6.180;2022-12-05T11:56:16;4.70;;;1.15;;
46429;SDS011;32131;53.454;-6.180;2022-12-05T12:01:38;4.45;;;1.00;;
46429;SDS011;32131;53.454;-6.180;2022-12-05T12:04:23;7.35;;;1.20;;
46429;SDS011;32131;53.454;-6.180;2022-12-05T12:07:13;11.88;;;1.20;;
46429;SDS011;32131;53.454;-6.180;2022-12-05T12:09:59;8.32;;;1.30;;
46429;SDS011;32131;53.454;-6.180;2022-12-05T12:12:37;9.05;;;1.08;;
46429;SDS011;32131;53.454;-6.180;2022-12-05T12:15:18;5.55;;;0.98;;
46429;SDS011;32131;53.454;-6.180;2022-12-05T12:18:00;6.00;;;1.00;;
46429;SDS011;32131;53.454;-6.180;2022-12-05T12:20:43;5.78;;;1.30;;
46429;SDS011;32131;53.454;-6.180;2022-12-05T12:26:00;9.88;;;0.98;;
46429;SDS011;32131;53.454;-6.180;2022-12-05T12:28:36;6.75;;;1.38;;
46429;SDS011;32131;53.454;-6.180;2022-12-05T12:31:20;4.78;;;1.15;;
46429;SDS011;32131;53.454;-6.180;2022-12-05T12:37:16;5.50;;;0.63;;
46429;SDS011;32131;53.454;-6.180;2022-12-05T12:39:56;5.82;;;0.82;;
46429;SDS011;32131;53.454;-6.180;2022-12-05T12:42:32;8.02;;;1.08;;
46429;SDS011;32131;53.454;-6.180;2022-12-05T12:48:12;2.28;;;0.82;;
46429;SDS011;32131;53.454;-6.180;2022-12-05T12:50:52;6.83;;;1.00;;
46429;SDS011;32131;53.454;-6.180;2022-12-05T12:56:26;11.45;;;1.05;;
46429;SDS011;32131;53.454;-6.180;2022-12-05T12:59:08;7.55;;;1.05;;
46429;SDS011;32131;53.454;-6.180;2022-12-05T13:01:49;9.38;;;0.77;;
46429;SDS011;32131;53.454;-6.180;2022-12-05T13:04:22;2.63;;;0.75;;
46429;SDS011;32131;53.454;-6.180;2022-12-05T13:06:59;1.85;;;0.60;;
46429;SDS011;32131;53.454;-6.180;2022-12-05T13:09:33;4.80;;;0.85;;
46429;SDS011;32131;53.454;-6.180;2022-12-05T13:12:08;10.50;;;1.00;;
46429;SDS011;32131;53.454;-6.180;2022-12-05T13:14:43;4.10;;;1.00;;
46429;SDS011;32131;53.454;-6.180;2022-12-05T13:17:16;7.35;;;1.13;;
46429;SDS011;32131;53.454;-6.180;2022-12-05T13:19:47;3.58;;;0.60;;
46429;SDS011;32131;53.454;-6.180;2022-12-05T13:22:17;4.00;;;0.80;;
46429;SDS011;32131;53.454;-6.180;2022-12-05T13:24:48;8.25;;;1.10;;
46429;SDS011;32131;53.454;-6.180;2022-12-05T13:27:19;7.43;;;1.00;;
46429;SDS011;32131;53.454;-6.180;2022-12-05T13:29:52;2.42;;;0.60;;
46429;SDS011;32131;53.454;-6.180;2022-12-05T13:32:25;2.50;;;0.57;;
46429;SDS011;32131;53.454;-6.180;2022-12-05T13:34:57;8.57;;;1.63;;
46429;SDS011;32131;53.454;-6.180;2022-12-05T13:37:28;9.15;;;2.90;;
46429;SDS011;32131;53.454;-6.180;2022-12-05T13:40:24;6.13;;;2.15;;
46429;SDS011;32131;53.454;-6.180;2022-12-05T13:43:14;10.93;;;2.47;;
46429;SDS011;32131;53.454;-6.180;2022-12-05T13:48:37;7.70;;;1.48;;
46429;SDS011;32131;53.454;-6.180;2022-12-05T13:51:09;7.95;;;1.58;;
46429;SDS011;32131;53.454;-6.180;2022-12-05T13:53:41;4.07;;;0.90;;
46429;SDS011;32131;53.454;-6.180;2022-12-05T13:56:23;5.85;;;0.88;;
46429;SDS011;32131;53.454;-6.180;2022-12-05T13:58:55;3.55;;;0.85;;
46429;SDS011;32131;53.454;-6.180;2022-12-05T14:10:04;20.73;;;4.00;;
46429;SDS011;32131;53.454;-6.180;2022-12-05T14:12:44;24.83;;;3.78;;
46429;SDS011;32131;53.454;-6.180;2022-12-05T14:15:29;7.20;;;1.85;;
46429;SDS011;32131;53.454;-6.180;2022-12-05T14:18:00;10.02;;;1.70;;
46429;SDS011;32131;53.454;-6.180;2022-12-05T14:20:55;4.63;;;1.15;;
46429;SDS011;32131;53.454;-6.180;2022-12-05T14:26:46;13.07;;;1.73;;
46429;SDS011;32131;53.454;-6.180;2022-12-05T14:29:31;4.72;;;0.90;;
46429;SDS011;32131;53.454;-6.180;2022-12-05T14:32:11;7.75;;;1.25;;
46429;SDS011;32131;53.454;-6.180;2022-12-05T14:34:53;3.95;;;1.00;;
46429;SDS011;32131;53.454;-6.180;2022-12-05T14:37:25;6.47;;;1.38;;
46429;SDS011;32131;53.454;-6.180;2022-12-05T14:39:57;5.55;;;1.45;;
46429;SDS011;32131;53.454;-6.180;2022-12-05T14:47:57;7.07;;;1.15;;
46429;SDS011;32131;53.454;-6.180;2022-12-05T14:50:37;3.30;;;0.90;;
46429;SDS011;32131;53.454;-6.180;2022-12-05T14:56:12;7.90;;;2.40;;
46429;SDS011;32131;53.454;-6.180;2022-12-05T14:58:45;5.15;;;1.88;;
46429;SDS011;32131;53.454;-6.180;2022-12-05T15:01:18;10.20;;;1.02;;
46429;SDS011;32131;53.454;-6.180;2022-12-05T15:04:01;9.40;;;1.42;;
46429;SDS011;32131;53.454;-6.180;2022-12-05T15:06:33;7.63;;;1.30;;
46429;SDS011;32131;53.454;-6.180;2022-12-05T15:09:17;11.23;;;2.08;;
46429;SDS011;32131;53.454;-6.180;2022-12-05T15:12:05;10.88;;;1.77;;
46429;SDS011;32131;53.454;-6.180;2022-12-05T15:14:41;8.95;;;1.63;;
46429;SDS011;32131;53.454;-6.180;2022-12-05T15:17:14;7.43;;;1.63;;
46429;SDS011;32131;53.454;-6.180;2022-12-05T15:19:52;12.07;;;1.70;;
46429;SDS011;32131;53.454;-6.180;2022-12-05T15:22:29;6.45;;;1.45;;
46429;SDS011;32131;53.454;-6.180;2022-12-05T15:25:19;6.95;;;1.77;;
46429;SDS011;32131;53.454;-6.180;2022-12-05T15:27:56;7.18;;;1.67;;
46429;SDS011;32131;53.454;-6.180;2022-12-05T15:32:59;7.10;;;1.10;;
46429;SDS011;32131;53.454;-6.180;2022-12-05T15:35:30;6.22;;;0.77;;
46429;SDS011;32131;53.454;-6.180;2022-12-05T15:38:01;4.93;;;0.93;;
46429;SDS011;32131;53.454;-6.180;2022-12-05T15:40:34;4.85;;;1.20;;
46429;SDS011;32131;53.454;-6.180;2022-12-05T15:46:07;4.53;;;1.00;;
46429;SDS011;32131;53.454;-6.180;2022-12-05T15:48:36;2.00;;;1.00;;
46429;SDS011;32131;53.454;-6.180;2022-12-05T15:51:05;12.18;;;1.90;;
46429;SDS011;32131;53.454;-6.180;2022-12-05T15:53:38;6.55;;;1.17;;
46429;SDS011;32131;53.454;-6.180;2022-12-05T15:56:11;5.90;;;1.60;;
46429;SDS011;32131;53.454;-6.180;2022-12-05T15:58:45;11.75;;;1.35;;
46429;SDS011;32131;53.454;-6.180;2022-12-05T16:03:49;5.97;;;1.55;;
46429;SDS011;32131;53.454;-6.180;2022-12-05T16:06:22;12.85;;;1.67;;
46429;SDS011;32131;53.454;-6.180;2022-12-05T16:08:57;9.55;;;1.42;;
46429;SDS011;32131;53.454;-6.180;2022-12-05T16:11:27;5.35;;;1.00;;